Time;durP1;ratioP1;P1;durP2;ratioP2;P2;SDS_P1;SDS_P2;PMS_P1;PMS_P2;Temp;Humidity;BMP_temperature;BMP_pressure;BME280_temperature;BME280_humidity;BME280_pressure;Samples;Min_cycle;Max_cycle;Signal;HPM_P1;HPM_P2
2023/01/17 00:00:23;;;;;;;5.43;3.30;;;;;;;11.17;100.00;101506.03;2097121;28;20140;-75
2023/01/17 00:01:45;;;;;;;6.78;3.60;;;;;;;11.18;100.00;101507.84;2092393;28;20037;-74
2023/01/17 00:03:08;;;;;;;6.90;3.65;;;;;;;11.17;100.00;101507.78;2093201;28;20537;-74
2023/01/17 00:09:52;;;;;;;6.30;3.92;;;;;;;11.13;100.00;101504.19;2063309;28;20042;-73
2023/01/17 00:11:15;;;;;;;4.78;2.97;;;;;;;11.13;100.00;101504.19;2060330;28;20531;-73
2023/01/17 00:12:38;;;;;;;8.65;4.25;;;;;;;11.16;100.00;101504.25;2055503;28;20628;-73
2023/01/17 00:13:59;;;;;;;6.75;3.55;;;;;;;11.18;100.00;101505.19;2077947;28;20045;-73
2023/01/17 00:15:24;;;;;;;4.63;2.70;;;;;;;11.22;100.00;101505.28;2090453;28;20040;-73
2023/01/17 00:16:45;;;;;;;6.93;3.08;;;;;;;11.24;100.00;101506.19;2093563;28;20060;-73
2023/01/17 00:18:07;;;;;;;5.75;3.20;;;;;;;11.25;100.00;101502.69;2092860;28;20066;-73
2023/01/17 00:26:19;;;;;;;4.63;2.90;;;;;;;11.23;100.00;101504.41;2088181;28;20146;-73
2023/01/17 01:33:54;;;;;;;5.18;2.97;;;;;;;11.32;100.00;101505.53;2096720;28;20544;-74
2023/01/17 01:35:17;;;;;;;6.63;2.47;;;;;;;11.33;100.00;101503.78;2095417;28;20048;-74
2023/01/17 01:36:39;;;;;;;4.97;2.45;;;;;;;11.32;100.00;101504.63;2097564;28;20056;-73
2023/01/17 01:38:01;;;;;;;6.55;2.45;;;;;;;11.30;100.00;101506.34;2102847;28;20070;-73
2023/01/17 01:39:23;;;;;;;;;;;;;;;11.22;100.00;101502.66;2102494;28;20131;-73
2023/01/17 01:40:46;;;;;;;5.68;2.53;;;;;;;11.21;100.00;101500.84;2094825;28;19920;-73
2023/01/17 01:42:14;;;;;;;5.90;2.30;;;;;;;11.17;100.00;101495.47;2090083;28;20036;-74
2023/01/17 01:43:42;;;;;;;5.65;2.63;;;;;;;11.15;100.00;101494.56;2087722;28;20045;-73
2023/01/17 01:45:17;;;;;;;4.60;2.28;;;;;;;11.14;100.00;101500.69;2095637;28;20078;-73
2023/01/17 01:46:41;;;;;;;5.10;2.95;;;;;;;11.18;100.00;101505.19;2104681;28;20052;-73
2023/01/17 01:48:11;;;;;;;6.72;3.15;;;;;;;11.22;100.00;101497.38;2109997;28;20054;-74
2023/01/17 01:49:34;;;;;;;6.28;2.60;;;;;;;11.22;100.00;101495.63;2105393;28;20059;-74
2023/01/17 01:50:57;;;;;;;6.22;2.90;;;;;;;11.23;100.00;101493.84;2093742;28;20346;-74
2023/01/17 01:52:23;;;;;;;5.18;2.80;;;;;;;11.23;100.00;101500.00;2090821;28;20044;-73
2023/01/17 01:53:49;;;;;;;5.63;2.47;;;;;;;11.27;100.00;101495.72;2100266;28;20642;-73
2023/01/17 01:55:16;;;;;;;5.97;2.92;;;;;;;11.31;100.00;101501.09;2101977;28;20052;-74
2023/01/17 01:56:40;;;;;;;5.88;2.88;;;;;;;11.31;100.00;101500.22;2103982;28;20043;-73
2023/01/17 01:58:10;;;;;;;5.13;2.70;;;;;;;11.31;100.00;101497.56;2095053;28;20045;-73
2023/01/17 01:59:34;;;;;;;6.80;2.50;;;;;;;11.34;100.00;101487.97;2100739;28;20157;-73
2023/01/17 02:00:56;;;;;;;6.28;2.70;;;;;;;11.38;100.00;101494.22;2102705;28;20044;-73
2023/01/17 02:02:19;;;;;;;6.03;2.50;;;;;;;11.44;100.00;101495.25;2096631;28;20501;-73
2023/01/17 02:03:42;;;;;;;6.05;2.60;;;;;;;11.47;100.00;101498.00;2100735;28;20075;-73
2023/01/17 02:05:04;;;;;;;5.28;2.50;;;;;;;11.48;100.00;101490.94;2102480;28;20062;-73
2023/01/17 02:06:35;;;;;;;6.25;2.45;;;;;;;11.51;100.00;101489.25;2102196;28;20052;-73
2023/01/17 02:08:01;;;;;;;6.38;2.30;;;;;;;11.52;100.00;101495.44;2106094;28;20105;-74
2023/01/17 02:09:24;;;;;;;4.20;2.58;;;;;;;11.53;100.00;101487.56;2103022;28;20044;-74
2023/01/17 02:10:45;;;;;;;5.47;2.30;;;;;;;11.54;100.00;101485.81;2100501;28;20043;-74
2023/01/17 02:12:09;;;;;;;5.78;2.33;;;;;;;11.54;100.00;101480.50;2105116;28;20056;-74
2023/01/17 02:13:31;;;;;;;4.13;2.20;;;;;;;11.53;100.00;101481.38;2102623;28;20055;-74
2023/01/17 02:14:54;;;;;;;5.53;2.30;;;;;;;11.54;100.00;101480.50;2096947;28;20044;-74
2023/01/17 02:16:29;;;;;;;3.97;2.55;;;;;;;11.52;100.00;101482.22;2102256;28;20126;-73
2023/01/17 02:17:56;;;;;;;4.68;2.30;;;;;;;11.49;100.00;101480.38;2102343;28;20060;-74
2023/01/17 02:19:49;;;;;;;5.63;2.33;;;;;;;11.46;100.00;101477.69;2102858;28;20114;-74
2023/01/17 02:21:32;;;;;;;4.90;2.20;;;;;;;11.42;100.00;101477.59;2097761;28;20119;-74
2023/01/17 02:23:20;;;;;;;4.95;1.90;;;;;;;11.41;100.00;101476.69;2093403;28;20044;-74
2023/01/17 02:25:16;;;;;;;6.63;2.00;;;;;;;11.46;100.00;101477.69;2100596;28;20447;-75
2023/01/17 02:27:03;;;;;;;3.85;1.80;;;;;;;11.49;100.00;101472.44;2104739;28;20414;-74
2023/01/17 02:28:40;;;;;;;3.40;1.70;;;;;;;11.49;100.00;101479.50;2104748;28;20060;-74
2023/01/17 02:30:38;;;;;;;3.13;1.60;;;;;;;11.51;100.00;101477.78;2101391;28;20067;-74
2023/01/17 02:32:06;;;;;;;3.72;1.98;;;;;;;11.58;100.00;101477.97;2098041;28;20045;-74
2023/01/17 02:33:38;;;;;;;5.72;2.15;;;;;;;11.62;100.00;101478.91;2102094;28;20052;-73
2023/01/17 02:35:04;;;;;;;7.70;2.17;;;;;;;11.61;100.00;101477.16;2103045;28;20673;-74
2023/01/17 02:36:32;;;;;;;5.03;2.00;;;;;;;11.62;100.00;101478.06;2095485;28;20078;-73
2023/01/17 02:38:03;;;;;;;4.63;2.10;;;;;;;11.61;100.00;101470.97;2102742;28;20044;-74
2023/01/17 02:39:33;;;;;;;3.95;1.95;;;;;;;11.58;100.00;101471.78;2103091;28;20078;-73
2023/01/17 02:40:58;;;;;;;5.57;2.22;;;;;;;11.55;100.00;101474.38;2101955;28;20044;-74
2023/01/17 02:42:25;;;;;;;3.33;1.65;;;;;;;11.54;100.00;101475.22;2102062;28;20054;-74
2023/01/17 02:43:49;;;;;;;5.00;2.00;;;;;;;11.51;100.00;101465.47;2098172;28;20078;-73
2023/01/17 02:45:15;;;;;;;5.32;2.47;;;;;;;11.47;100.00;101468.91;2102203;28;20054;-74
2023/01/17 02:46:45;;;;;;;4.93;2.10;;;;;;;11.44;100.00;101458.25;2102701;28;20048;-74
2023/01/17 02:48:13;;;;;;;4.70;2.00;;;;;;;11.42;100.00;101459.09;2087637;28;20041;-74
2023/01/17 02:49:34;;;;;;;7.40;3.13;;;;;;;11.42;100.00;101481.09;2093128;28;20063;-74
2023/01/17 02:51:35;;;;;;;4.13;1.92;;;;;;;11.46;100.00;101477.69;2097308;28;20076;-74
2023/01/17 02:53:12;;;;;;;15.00;10.18;;;;;;;11.46;100.00;101472.41;2097540;28;20075;-73
2023/01/17 02:55:02;;;;;;;11.18;4.10;;;;;;;11.46;100.00;101476.78;2096857;28;20116;-73
2023/01/17 02:56:36;;;;;;;7.38;2.33;;;;;;;11.46;100.00;101471.50;2100223;28;20074;-74
2023/01/17 02:58:15;;;;;;;3.42;1.77;;;;;;;11.43;100.00;101469.66;2104391;28;20134;-74
2023/01/17 02:59:45;;;;;;;5.18;2.17;;;;;;;11.43;100.00;101467.03;2104505;28;20043;-73
2023/01/17 03:01:19;;;;;;;4.32;1.80;;;;;;;11.46;100.00;101463.56;2103028;28;20055;-73
2023/01/17 03:02:50;;;;;;;4.60;1.80;;;;;;;11.47;100.00;101463.63;2104761;28;20048;-73
2023/01/17 03:04:20;;;;;;;6.15;2.47;;;;;;;11.46;100.00;101460.94;2095753;28;20045;-73
2023/01/17 03:05:48;;;;;;;5.25;1.85;;;;;;;11.47;100.00;101458.31;2101852;28;20463;-73
2023/01/17 03:07:15;;;;;;;2.28;1.42;;;;;;;11.47;100.00;101463.63;2090765;28;20048;-74
2023/01/17 03:08:39;;;;;;;4.20;1.60;;;;;;;11.47;100.00;101458.31;2100821;28;20463;-73
2023/01/17 03:10:03;;;;;;;2.50;1.55;;;;;;;11.46;100.00;101450.34;2102108;28;20047;-73
2023/01/17 03:11:27;;;;;;;2.63;1.42;;;;;;;11.48;100.00;101449.53;2102179;28;20434;-74
2023/01/17 03:12:50;;;;;;;5.15;1.40;;;;;;;11.51;100.00;101446.94;2102663;28;20043;-74
2023/01/17 03:14:15;;;;;;;5.47;1.70;;;;;;;11.53;100.00;101457.56;2100211;28;20383;-73
2023/01/17 03:15:40;;;;;;;4.03;1.70;;;;;;;11.55;100.00;101453.22;2095101;28;20478;-74
2023/01/17 03:17:02;;;;;;;5.28;1.80;;;;;;;11.56;100.00;101442.66;2092188;28;20044;-74
2023/01/17 03:18:23;;;;;;;6.03;1.65;;;;;;;11.58;100.00;101445.34;2086888;28;20057;-74
2023/01/17 03:19:48;;;;;;;2.97;1.38;;;;;;;11.58;100.00;101435.66;2091082;28;20049;-74
2023/01/17 03:21:10;;;;;;;7.55;1.42;;;;;;;11.61;100.00;101429.56;2095601;28;20434;-73
2023/01/17 03:22:31;;;;;;;2.95;1.55;;;;;;;11.62;100.00;101431.31;2101392;28;20052;-73
2023/01/17 03:23:54;;;;;;;4.45;1.52;;;;;;;11.62;100.00;101439.25;2100442;28;20036;-74
2023/01/17 03:25:15;;;;;;;3.63;1.50;;;;;;;11.63;100.00;101441.03;2102911;28;20040;-74
2023/01/17 03:26:38;;;;;;;2.53;1.40;;;;;;;11.63;100.00;101440.13;2102158;28;20056;-73
2023/01/17 03:27:59;;;;;;;5.32;1.70;;;;;;;11.62;100.00;101439.25;2104439;28;20051;-73
2023/01/17 03:29:21;;;;;;;3.17;1.80;;;;;;;11.62;100.00;101441.88;2100396;28;20076;-74
2023/01/17 03:30:44;;;;;;;2.60;1.38;;;;;;;11.66;100.00;101446.41;2102075;28;20048;-74
2023/01/17 03:32:05;;;;;;;3.58;1.58;;;;;;;11.68;100.00;101446.44;2093479;28;20082;-73
2023/01/17 03:33:27;;;;;;;2.90;1.20;;;;;;;11.67;100.00;101450.84;2091471;28;20056;-74
2023/01/17 03:34:50;;;;;;;4.65;1.58;;;;;;;11.69;100.00;101450.84;2094640;28;20077;-74
2023/01/17 03:36:13;;;;;;;5.70;1.52;;;;;;;11.69;100.00;101454.41;2097178;28;20044;-74
2023/01/17 03:37:34;;;;;;;3.83;1.77;;;;;;;11.69;100.00;101448.22;2102530;28;20052;-73
2023/01/17 03:38:56;;;;;;;6.05;1.50;;;;;;;11.69;100.00;101457.03;2094239;28;20084;-73
2023/01/17 03:40:17;;;;;;;2.15;1.40;;;;;;;11.69;100.00;101459.69;2093027;28;20037;-74
2023/01/17 03:41:40;;;;;;;2.35;1.60;;;;;;;11.69;100.00;101459.69;2099921;28;20051;-73
2023/01/17 03:43:02;;;;;;;3.90;1.48;;;;;;;11.67;100.00;101453.50;2101224;28;20048;-73
2023/01/17 03:44:24;;;;;;;6.20;1.50;;;;;;;11.68;100.00;101447.34;2101518;28;20063;-74
2023/01/17 03:45:50;;;;;;;3.58;1.60;;;;;;;11.67;100.00;101456.13;2101603;28;20044;-75
2023/01/17 03:47:12;;;;;;;2.63;1.63;;;;;;;11.67;100.00;101450.84;2110370;28;20044;-75
2023/01/17 03:48:34;;;;;;;5.88;1.60;;;;;;;11.66;100.00;101459.63;2101197;28;20044;-74
2023/01/17 03:49:57;;;;;;;6.43;1.88;;;;;;;11.66;100.00;101461.38;2110904;28;20473;-74
2023/01/17 03:51:19;;;;;;;5.45;1.60;;;;;;;11.65;100.00;101468.41;2103353;28;20061;-74
2023/01/17 03:52:43;;;;;;;3.78;1.48;;;;;;;11.66;100.00;101464.03;2104962;28;20051;-74
2023/01/17 03:54:06;;;;;;;3.35;1.77;;;;;;;11.69;100.00;101466.72;2101968;28;20052;-73
2023/01/17 03:55:28;;;;;;;3.72;1.95;;;;;;;11.71;100.00;101470.31;2102796;28;20081;-73
2023/01/17 03:56:49;;;;;;;7.72;1.90;;;;;;;11.72;100.00;101473.00;2100880;28;20051;-74
2023/01/17 03:58:12;;;;;;;3.53;1.58;;;;;;;11.73;100.00;101474.78;2101322;28;20532;-74
2023/01/17 03:59:33;;;;;;;5.32;1.92;;;;;;;11.75;100.00;101478.38;2094274;28;20087;-73
2023/01/17 04:00:55;;;;;;;7.00;1.92;;;;;;;11.77;100.00;101473.13;2098768;28;20040;-73
2023/01/17 04:02:16;;;;;;;5.97;1.77;;;;;;;11.78;100.00;101474.91;2102253;28;20138;-73
2023/01/17 04:03:40;;;;;;;6.10;1.80;;;;;;;11.78;100.00;101475.81;2096707;28;20083;-73
2023/01/17 04:05:05;;;;;;;3.92;1.83;;;;;;;11.78;100.00;101486.38;2098222;28;20043;-73
2023/01/17 04:06:27;;;;;;;4.40;1.50;;;;;;;11.77;100.00;101484.59;2096809;28;20062;-73
2023/01/17 04:07:49;;;;;;;;;;;;;;;11.72;100.00;101480.94;2093689;28;20045;-73
2023/01/17 04:09:11;;;;;;;12.30;2.95;;;;;;;11.75;100.00;101488.09;2099660;28;19920;-73
2023/01/17 04:10:32;;;;;;;6.00;1.67;;;;;;;11.78;100.00;101481.09;2102482;28;20130;-72
2023/01/17 04:11:55;;;;;;;9.05;2.65;;;;;;;11.78;100.00;101481.09;2095137;28;20045;-74
2023/01/17 04:13:17;;;;;;;8.48;2.60;;;;;;;11.77;100.00;101481.94;2101467;28;20032;-74
2023/01/17 04:14:39;;;;;;;7.50;2.13;;;;;;;11.75;100.00;101481.00;2100565;28;20490;-74
2023/01/17 04:16:02;;;;;;;10.23;2.42;;;;;;;11.77;100.00;101489.00;2102141;28;20113;-74
2023/01/17 04:17:25;;;;;;;6.30;1.88;;;;;;;11.78;100.00;101486.38;2088458;28;20052;-74
2023/01/17 04:18:47;;;;;;;8.50;2.42;;;;;;;11.82;100.00;101482.94;2083574;28;20053;-74
2023/01/17 04:20:17;;;;;;;9.93;3.08;;;;;;;11.85;100.00;101482.13;2095059;28;20052;-74
2023/01/17 04:21:39;;;;;;;5.95;1.88;;;;;;;11.84;100.00;101485.63;2102301;28;20134;-73
2023/01/17 04:23:02;;;;;;;5.05;1.92;;;;;;;11.83;100.00;101490.00;2097173;28;20060;-74
2023/01/17 04:24:24;;;;;;;8.75;2.30;;;;;;;11.82;100.00;101480.28;2100134;28;20081;-74
2023/01/17 04:25:46;;;;;;;7.40;2.10;;;;;;;11.86;100.00;101481.28;2100941;28;20056;-75
2023/01/17 04:27:09;;;;;;;7.07;2.40;;;;;;;11.85;100.00;101480.38;2102287;28;20390;-74
2023/01/17 04:28:30;;;;;;;8.40;3.67;;;;;;;11.86;100.00;101483.91;2101336;28;20456;-74
2023/01/17 04:29:52;;;;;;;7.07;1.58;;;;;;;11.85;100.00;101496.25;2101305;28;20623;-74
2023/01/17 04:31:16;;;;;;;5.65;2.40;;;;;;;11.84;100.00;101486.50;2096128;28;20064;-75
2023/01/17 04:32:38;;;;;;;6.57;3.03;;;;;;;11.85;100.00;101483.03;2087788;28;20037;-74
2023/01/17 04:34:00;;;;;;;12.38;4.18;;;;;;;11.85;100.00;101492.72;2097694;28;20063;-74
2023/01/17 04:35:23;;;;;;;8.82;3.97;;;;;;;11.80;100.00;101487.31;2102079;28;20059;-74
2023/01/17 04:36:46;;;;;;;7.90;3.30;;;;;;;11.75;100.00;101488.09;2100213;28;20051;-74
2023/01/17 04:38:08;;;;;;;10.25;4.40;;;;;;;11.72;100.00;101490.59;2093674;28;20413;-74
2023/01/17 04:39:31;;;;;;;7.70;4.00;;;;;;;11.78;100.00;101496.06;2099475;28;20047;-75
2023/01/17 04:40:54;;;;;;;4.80;2.90;;;;;;;11.86;100.00;101489.22;2100668;28;20540;-74
2023/01/17 04:42:15;;;;;;;8.27;3.47;;;;;;;11.92;100.00;101484.94;2100320;28;20536;-74
2023/01/17 04:43:37;;;;;;;8.85;3.58;;;;;;;11.97;100.00;101485.94;2101865;28;20052;-72
2023/01/17 04:44:58;;;;;;;11.10;7.00;;;;;;;12.03;100.00;101484.25;2101649;28;20040;-73
2023/01/17 04:46:21;;;;;;;12.52;7.35;;;;;;;12.03;100.00;101477.22;2091284;28;20052;-73
2023/01/17 04:47:43;;;;;;;12.07;7.20;;;;;;;12.01;100.00;101472.78;2096419;28;20510;-73
2023/01/17 04:49:05;;;;;;;11.75;7.68;;;;;;;11.98;100.00;101469.19;2098970;28;20035;-73
2023/01/17 04:50:30;;;;;;;14.18;9.82;;;;;;;11.95;100.00;101463.81;2100984;28;20063;-74
2023/01/17 04:51:51;;;;;;;13.23;9.00;;;;;;;11.92;100.00;101468.16;2094004;28;20047;-73
2023/01/17 04:53:14;;;;;;;14.32;9.68;;;;;;;11.86;100.00;101458.34;2094032;28;20718;-74
2023/01/17 04:54:35;;;;;;;17.40;14.60;;;;;;;11.81;100.00;101452.09;2102092;28;20040;-73
2023/01/17 04:55:58;;;;;;;22.67;19.02;;;;;;;11.80;100.00;101452.03;2101543;28;20044;-73
2023/01/17 04:57:20;;;;;;;18.80;16.15;;;;;;;11.81;100.00;101449.44;2101941;28;20048;-74
2023/01/17 04:58:42;;;;;;;25.15;21.73;;;;;;;11.76;100.00;101444.88;2100546;28;20044;-74
2023/01/17 05:00:06;;;;;;;24.40;21.10;;;;;;;11.73;100.00;101442.16;2094660;28;20041;-73
2023/01/17 05:01:28;;;;;;;28.80;19.70;;;;;;;11.67;100.00;101439.38;2085528;28;20052;-73
2023/01/17 05:02:51;;;;;;;29.98;25.73;;;;;;;11.65;100.00;101434.03;2092601;28;20521;-73
2023/01/17 05:04:13;;;;;;;47.70;42.58;;;;;;;11.66;100.00;101433.19;2101895;28;20040;-74
2023/01/17 05:05:35;;;;;;;52.28;46.65;;;;;;;11.73;100.00;101429.81;2101921;28;20059;-73
2023/01/17 05:06:58;;;;;;;61.97;54.30;;;;;;;11.80;100.00;101430.88;2100327;28;20082;-74
2023/01/17 05:10:38;;;;;;;51.03;44.97;;;;;;;11.96;100.00;101427.66;2096854;28;20418;-74
2023/01/17 05:12:00;;;;;;;42.70;38.10;;;;;;;12.01;100.00;101417.22;2084913;28;20044;-74
2023/01/17 05:13:22;;;;;;;37.47;33.45;;;;;;;12.05;100.00;101419.03;2100991;28;20055;-73
2023/01/17 05:14:45;;;;;;;38.40;30.38;;;;;;;12.06;100.00;101419.06;2102221;28;20059;-74
2023/01/17 05:16:08;;;;;;;41.55;34.35;;;;;;;12.09;100.00;101415.56;2093829;28;20537;-74
2023/01/17 05:17:30;;;;;;;26.65;22.17;;;;;;;12.10;100.00;101412.06;2100246;28;20054;-74
2023/01/17 05:18:52;;;;;;;37.85;31.95;;;;;;;12.14;100.00;101419.22;2096610;28;20174;-74
2023/01/17 05:20:14;;;;;;;47.33;37.75;;;;;;;12.17;100.00;101411.34;2100041;28;20608;-73
2023/01/17 05:21:38;;;;;;;34.45;27.38;;;;;;;12.21;100.00;101405.22;2102251;28;20052;-73
2023/01/17 05:22:59;;;;;;;40.70;34.45;;;;;;;12.25;100.00;101407.09;2099772;28;20048;-74
2023/01/17 05:24:22;;;;;;;42.97;38.28;;;;;;;12.26;100.00;101412.41;2099730;28;20143;-74
2023/01/17 05:25:44;;;;;;;51.15;43.47;;;;;;;12.29;100.00;101408.91;2093330;28;20080;-74
2023/01/17 05:27:06;;;;;;;46.15;40.20;;;;;;;12.31;100.00;101413.38;2099620;28;20481;-73
2023/01/17 05:28:29;;;;;;;48.45;41.03;;;;;;;12.36;100.00;101416.13;2100771;28;20044;-74
2023/01/17 05:29:50;;;;;;;51.65;41.85;;;;;;;12.37;100.00;101416.16;2101544;28;20068;-74
2023/01/17 05:31:13;;;;;;;49.13;43.05;;;;;;;12.38;100.00;101414.41;2100311;28;20048;-75
2023/01/17 05:32:35;;;;;;;49.97;43.72;;;;;;;12.41;100.00;101408.25;2096611;28;20036;-75
2023/01/17 05:33:57;;;;;;;59.58;53.05;;;;;;;12.42;100.00;101413.59;2088629;28;20576;-74
2023/01/17 05:35:21;;;;;;;77.45;69.22;;;;;;;12.42;100.00;101417.97;2086592;28;20052;-74
2023/01/17 05:36:45;;;;;;;62.03;51.60;;;;;;;12.43;100.00;101420.66;2091625;28;20514;-74
2023/01/17 05:38:06;;;;;;;45.08;37.72;;;;;;;12.47;100.00;101422.50;2085124;28;20053;-74
2023/01/17 05:39:29;;;;;;;15.68;11.50;;;;;;;12.48;100.00;101429.56;2092706;28;20059;-75
2023/01/17 05:40:52;;;;;;;6.53;4.32;;;;;;;12.51;100.00;101439.34;2098365;28;20869;-74
2023/01/17 05:42:14;;;;;;;3.55;1.60;;;;;;;12.57;100.00;101444.75;2102001;28;20044;-74
2023/01/17 05:43:37;;;;;;;7.22;2.63;;;;;;;12.61;100.00;101459.81;2099409;28;20052;-74
2023/01/17 05:44:58;;;;;;;5.30;1.88;;;;;;;12.63;100.00;101458.13;2100731;28;20044;-74
2023/01/17 05:46:20;;;;;;;6.22;2.00;;;;;;;12.65;100.00;101467.88;2093716;28;20513;-73
2023/01/17 05:47:42;;;;;;;7.85;2.60;;;;;;;12.64;100.00;101474.03;2093822;28;20521;-73
2023/01/17 05:49:04;;;;;;;8.38;3.58;;;;;;;12.63;100.00;101479.31;2103444;28;20559;-73
2023/01/17 05:50:29;;;;;;;6.20;2.35;;;;;;;12.61;100.00;101483.66;2100757;28;20105;-74
2023/01/17 05:51:53;;;;;;;6.18;1.38;;;;;;;12.57;100.00;101482.72;2091190;28;20059;-74
2023/01/17 05:53:15;;;;;;;10.32;1.75;;;;;;;12.55;100.00;101488.84;2091085;28;20044;-74
2023/01/17 05:54:38;;;;;;;7.35;1.67;;;;;;;12.54;100.00;101492.34;2100192;28;20060;-75
2023/01/17 05:56:00;;;;;;;4.32;1.50;;;;;;;12.52;100.00;101491.47;2100766;28;20038;-74
2023/01/17 05:57:21;;;;;;;3.50;1.52;;;;;;;12.49;100.00;101491.38;2101896;28;20048;-74
2023/01/17 05:58:44;;;;;;;7.30;2.38;;;;;;;12.48;100.00;101490.50;2097455;28;20457;-74
2023/01/17 06:00:06;;;;;;;3.90;1.45;;;;;;;12.48;100.00;101485.19;2104417;28;20048;-74
2023/01/17 06:01:29;;;;;;;6.43;2.90;;;;;;;12.50;100.00;101487.88;2101875;28;20040;-74
2023/01/17 06:02:52;;;;;;;8.77;4.80;;;;;;;12.51;100.00;101484.38;2102091;28;20551;-74
2023/01/17 06:04:14;;;;;;;9.05;4.47;;;;;;;12.50;100.00;101483.47;2100734;28;20032;-74
2023/01/17 06:05:37;;;;;;;9.85;7.63;;;;;;;12.48;100.00;101477.25;2096329;28;20048;-74
2023/01/17 06:07:01;;;;;;;10.85;6.78;;;;;;;12.49;100.00;101475.50;2093965;28;20044;-74
2023/01/17 06:08:23;;;;;;;10.65;5.30;;;;;;;12.43;100.00;101481.56;2093431;28;20060;-74
2023/01/17 06:09:45;;;;;;;8.18;4.28;;;;;;;12.42;100.00;101489.47;2093449;28;20502;-74
2023/01/17 06:11:08;;;;;;;8.70;4.93;;;;;;;12.44;100.00;101501.91;2098047;28;20148;-74
2023/01/17 06:12:29;;;;;;;15.60;5.63;;;;;;;12.49;100.00;101510.81;2101702;28;20032;-74
2023/01/17 06:13:51;;;;;;;12.52;7.00;;;;;;;12.54;100.00;101509.13;2101963;28;20041;-74
2023/01/17 06:15:15;;;;;;;19.13;11.85;;;;;;;12.59;100.00;101504.84;2095460;28;20190;-74
2023/01/17 06:16:38;;;;;;;15.23;10.02;;;;;;;12.62;100.00;101502.25;2094638;28;20483;-74
2023/01/17 06:18:04;;;;;;;23.58;14.77;;;;;;;12.70;100.00;101499.75;2086159;28;20102;-75
2023/01/17 06:19:26;;;;;;;27.52;14.93;;;;;;;12.82;100.00;101507.03;2085273;28;20049;-74
2023/01/17 06:20:53;;;;;;;16.90;12.93;;;;;;;12.96;100.00;101503.75;2092856;28;20113;-74
2023/01/17 06:22:16;;;;;;;17.88;10.75;;;;;;;13.02;100.00;101503.88;2095326;28;20063;-73
2023/01/17 06:23:38;;;;;;;14.68;9.65;;;;;;;13.07;100.00;101512.78;2106510;28;20523;-72
2023/01/17 06:24:59;;;;;;;12.27;7.43;;;;;;;13.22;100.00;101512.19;2102382;28;20048;-73
2023/01/17 06:26:22;;;;;;;15.68;10.15;;;;;;;13.38;100.00;101518.66;2103303;28;20067;-73
2023/01/17 06:27:44;;;;;;;10.80;5.85;;;;;;;13.51;100.00;101515.34;2103218;28;20047;-72
2023/01/17 06:29:06;;;;;;;10.07;6.03;;;;;;;13.61;100.00;101519.00;2094525;28;20040;-72
2023/01/17 06:30:29;;;;;;;12.18;6.13;;;;;;;13.68;100.00;101519.13;2100913;28;20536;-72
2023/01/17 06:31:52;;;;;;;11.85;5.43;;;;;;;13.72;100.00;101523.59;2093985;28;20044;-71
2023/01/17 06:33:14;;;;;;;9.38;3.70;;;;;;;13.83;100.00;101524.66;2103270;28;20037;-72
2023/01/17 06:34:38;;;;;;;10.00;3.40;;;;;;;13.90;100.00;101525.66;2103366;28;20555;-72
2023/01/17 06:36:00;;;;;;;7.00;2.70;;;;;;;13.92;100.00;101518.56;2095982;28;20058;-73
2023/01/17 06:37:24;;;;;;;9.20;2.65;;;;;;;13.93;100.00;101508.00;2097453;28;20055;-72
2023/01/17 06:38:50;;;;;;;5.80;2.17;;;;;;;13.96;100.00;101516.00;2100034;28;20044;-72
2023/01/17 06:40:13;;;;;;;5.97;1.52;;;;;;;14.01;100.00;101505.44;2097317;28;20048;-72
2023/01/17 06:41:35;;;;;;;6.43;2.00;;;;;;;14.07;100.00;101502.88;2099144;28;20051;-72
2023/01/17 06:43:00;;;;;;;10.10;2.03;;;;;;;14.11;100.00;101504.69;2103061;28;20086;-72
2023/01/17 06:44:23;;;;;;;7.22;2.38;;;;;;;14.13;100.00;101496.75;2103500;28;20524;-73
2023/01/17 06:45:46;;;;;;;6.43;2.20;;;;;;;14.17;100.00;101504.78;2094650;28;20053;-72
2023/01/17 06:47:08;;;;;;;6.10;1.90;;;;;;;14.17;100.00;101502.13;2100886;28;20059;-73
2023/01/17 06:48:31;;;;;;;7.35;2.50;;;;;;;14.17;100.00;101503.91;2103360;28;20071;-73
2023/01/17 06:49:53;;;;;;;4.13;1.70;;;;;;;14.18;100.00;101498.56;2102501;28;20745;-73
2023/01/17 06:51:15;;;;;;;9.75;2.63;;;;;;;14.16;100.00;101507.41;2100703;28;20036;-72
2023/01/17 06:52:39;;;;;;;14.32;10.73;;;;;;;14.15;100.00;101511.84;2099854;28;20044;-72
2023/01/17 06:54:02;;;;;;;27.00;19.40;;;;;;;14.26;100.00;101514.63;2102992;28;20448;-73
2023/01/17 06:55:27;;;;;;;36.95;31.85;;;;;;;14.39;100.00;101513.03;2103209;28;20062;-73
2023/01/17 06:56:49;;;;;;;20.80;17.08;;;;;;;14.54;100.00;101506.16;2102598;28;20032;-73
2023/01/17 06:58:12;;;;;;;12.73;9.52;;;;;;;14.65;100.00;101515.13;2105363;28;20157;-73
2023/01/17 06:59:34;;;;;;;12.00;7.95;;;;;;;14.68;100.00;101512.50;2103119;28;20445;-73
2023/01/17 07:00:56;;;;;;;15.30;10.88;;;;;;;14.65;100.00;101517.78;2097454;28;20048;-73
2023/01/17 07:02:18;;;;;;;14.55;10.77;;;;;;;14.64;100.00;101516.00;2094509;28;20107;-73
2023/01/17 07:03:40;;;;;;;30.45;26.02;;;;;;;14.71;100.00;101519.59;2094144;28;20119;-73
2023/01/17 07:05:02;;;;;;;41.47;34.40;;;;;;;14.77;100.00;101520.56;2094159;28;20614;-73
2023/01/17 07:06:27;;;;;;;45.10;39.08;;;;;;;14.81;100.00;101525.94;2094655;28;20550;-72
2023/01/17 07:07:52;;;;;;;24.88;19.23;;;;;;;14.77;100.00;101523.22;2102008;28;20040;-72
2023/01/17 07:09:15;;;;;;;14.98;10.57;;;;;;;14.71;100.00;101531.13;2102733;28;20070;-73
2023/01/17 07:10:36;;;;;;;11.85;6.47;;;;;;;14.64;100.00;101521.31;2094317;28;20037;-73
2023/01/17 07:12:00;;;;;;;6.93;3.78;;;;;;;14.64;100.00;101520.41;2098628;28;20485;-73
2023/01/17 07:13:23;;;;;;;9.85;3.92;;;;;;;14.65;100.00;101514.22;2099997;28;20044;-73
2023/01/17 07:14:45;;;;;;;27.80;20.90;;;;;;;14.62;100.00;101508.91;2102763;28;20040;-73
2023/01/17 07:16:08;;;;;;;19.17;16.35;;;;;;;14.60;100.00;101513.28;2102566;28;20750;-73
2023/01/17 07:17:31;;;;;;;12.05;5.18;;;;;;;14.55;100.00;101507.03;2101659;28;20072;-74
2023/01/17 07:18:53;;;;;;;10.25;5.57;;;;;;;14.53;100.00;101508.78;2095910;28;20048;-72
2023/01/17 07:20:16;;;;;;;7.13;2.78;;;;;;;14.51;100.00;101515.81;2088952;28;20078;-74
2023/01/17 07:21:39;;;;;;;9.93;4.43;;;;;;;14.55;100.00;101517.66;2092310;28;20052;-73
2023/01/17 07:23:02;;;;;;;18.52;12.68;;;;;;;14.72;100.00;101526.72;2104030;28;20032;-73
2023/01/17 07:24:25;;;;;;;16.17;10.25;;;;;;;14.96;100.00;101520.78;2111191;28;20060;-73
2023/01/17 07:25:52;;;;;;;21.67;15.85;;;;;;;15.23;100.00;101520.16;2103820;28;20126;-73
2023/01/17 07:27:17;;;;;;;27.17;20.75;;;;;;;15.42;100.00;101506.13;2103148;28;20147;-73
2023/01/17 07:28:40;;;;;;;15.43;12.48;;;;;;;15.59;100.00;101523.13;2102350;28;20063;-72
2023/01/17 07:30:01;;;;;;;19.80;15.10;;;;;;;15.62;100.00;101499.16;2084034;28;20049;-73
2023/01/17 07:31:24;;;;;;;25.77;22.48;;;;;;;15.57;100.00;101500.03;2097015;28;20040;-72
2023/01/17 07:32:52;;;;;;;41.85;36.88;;;;;;;15.57;100.00;101519.53;2099663;28;20493;-73
2023/01/17 07:34:14;;;;;;;30.48;21.02;;;;;;;15.72;100.00;101516.09;2103137;28;20044;-74
2023/01/17 07:35:37;;;;;;;26.80;19.58;;;;;;;15.90;100.00;101519.78;2092585;28;20044;-72
2023/01/17 07:36:59;;;;;;;25.15;20.77;;;;;;;16.09;100.00;101522.53;2091010;28;20048;-72
2023/01/17 07:38:23;;;;;;;35.72;29.42;;;;;;;16.27;100.00;101527.97;2098393;28;20036;-72
2023/01/17 07:39:45;;;;;;;25.58;20.45;;;;;;;16.42;100.00;101528.00;2095855;28;21480;-73
2023/01/17 07:41:08;;;;;;;21.48;16.38;;;;;;;16.60;100.00;101528.13;2101344;28;20060;-73
2023/01/17 07:42:30;;;;;;;14.13;11.50;;;;;;;16.79;100.00;101536.19;2102642;28;20043;-73
2023/01/17 07:43:52;;;;;;;15.07;10.63;;;;;;;16.94;100.00;101533.53;2110846;28;20054;-73
2023/01/17 07:45:16;;;;;;;6.22;3.08;;;;;;;17.03;100.00;101530.91;2095391;28;20417;-73